createdAt,value
2022-09-05T00:00:11.689Z,16.90
2022-09-05T00:03:03.968Z,16.85
2022-09-05T00:05:33.439Z,16.66
2022-09-05T00:08:41.042Z,16.69
2022-09-05T00:11:43.280Z,16.79
2022-09-05T00:15:14.689Z,16.73
2022-09-05T00:18:07.911Z,16.56
2022-09-05T00:24:30.072Z,16.82
2022-09-05T00:24:37.273Z,16.73
2022-09-05T00:27:19.739Z,16.72
2022-09-05T00:31:07.223Z,16.59
2022-09-05T00:33:00.106Z,16.58
2022-09-05T00:35:26.882Z,16.70
2022-09-05T00:37:54.454Z,16.71
2022-09-05T00:40:37.988Z,16.85
2022-09-05T00:43:10.008Z,16.77
2022-09-05T00:45:47.641Z,16.59
2022-09-05T00:48:28.591Z,16.82
2022-09-05T00:51:01.293Z,16.86
2022-09-05T00:53:46.565Z,16.84
2022-09-05T00:56:22.265Z,16.81
2022-09-05T00:59:26.583Z,16.76
2022-09-05T01:02:23.103Z,16.57
2022-09-05T01:05:31.427Z,16.30
2022-09-05T01:08:13.426Z,16.12
2022-09-05T01:10:46.363Z,16.23
2022-09-05T01:13:31.584Z,16.24
2022-09-05T01:16:24.263Z,16.11
2022-09-05T01:18:59.311Z,16.24
2022-09-05T01:21:57.912Z,16.07
2022-09-05T01:24:46.433Z,16.03
2022-09-05T01:27:54.660Z,15.95
2022-09-05T01:30:55.508Z,15.83
2022-09-05T01:33:38.211Z,15.66
2022-09-05T01:36:28.529Z,15.82
2022-09-05T01:40:11.130Z,15.82
2022-09-05T01:42:24.922Z,16.02
2022-09-05T01:45:29.452Z,16.01
2022-09-05T01:48:30.252Z,16.07
2022-09-05T01:51:28.231Z,16.12
2022-09-05T01:54:05.264Z,16.10
2022-09-05T01:56:39.443Z,16.13
2022-09-05T01:59:09.082Z,16.21
2022-09-05T02:02:00.460Z,16.24
2022-09-05T02:05:47.198Z,16.28
2022-09-05T02:08:26.539Z,16.21
2022-09-05T02:10:53.147Z,16.00
2022-09-05T02:13:49.568Z,15.73
2022-09-05T02:16:54.748Z,15.66
2022-09-05T02:19:31.546Z,15.53
2022-09-05T02:22:02.520Z,15.43
2022-09-05T02:24:43.131Z,15.48
2022-09-05T02:28:01.891Z,15.44
2022-09-05T02:30:12.962Z,15.44
2022-09-05T02:33:21.549Z,15.44
2022-09-05T02:36:13.100Z,15.45
2022-09-05T02:42:43.452Z,15.49
2022-09-05T02:45:10.558Z,15.52
2022-09-05T02:45:26.554Z,15.59
2022-09-05T02:48:27.673Z,15.58
2022-09-05T02:57:27.323Z,15.59
2022-09-05T02:57:46.249Z,15.54
2022-09-05T02:58:06.215Z,15.51
2022-09-05T03:00:24.272Z,15.24
2022-09-05T03:03:12.023Z,15.41
2022-09-05T03:05:46.513Z,15.39
2022-09-05T03:08:44.145Z,15.36
2022-09-05T03:11:38.430Z,15.33
2022-09-05T03:14:41.610Z,15.39
2022-09-05T03:17:33.172Z,15.55
2022-09-05T03:20:08.798Z,15.54
2022-09-05T03:23:20.706Z,15.58
2022-09-05T03:26:05.613Z,15.51
2022-09-05T03:29:08.950Z,15.43
2022-09-05T03:31:54.078Z,15.36
2022-09-05T03:35:11.904Z,14.94
2022-09-05T03:37:56.652Z,15.45
2022-09-05T03:41:01.032Z,15.55
2022-09-05T03:43:53.590Z,15.66
2022-09-05T03:46:32.959Z,15.54
2022-09-05T03:54:32.371Z,15.80
2022-09-05T03:57:07.377Z,15.74
2022-09-05T03:57:23.883Z,15.27
2022-09-05T03:59:12.423Z,15.17
2022-09-05T04:02:57.976Z,15.03
2022-09-05T04:08:07.619Z,14.97
2022-09-05T04:08:17.616Z,14.95
2022-09-05T04:10:37.069Z,15.06
2022-09-05T04:13:14.780Z,15.17
2022-09-05T04:15:48.703Z,15.15
2022-09-05T04:18:33.164Z,15.34
2022-09-05T04:21:29.171Z,15.46
2022-09-05T04:24:43.818Z,15.54
2022-09-05T04:27:27.921Z,15.50
2022-09-05T04:30:01.764Z,15.69
2022-09-05T04:32:56.840Z,15.44
2022-09-05T04:35:39.337Z,15.28
2022-09-05T04:38:11.344Z,15.54
2022-09-05T04:40:49.520Z,15.63
2022-09-05T04:43:25.375Z,15.90
2022-09-05T04:46:25.423Z,15.96
2022-09-05T04:48:55.109Z,16.01
2022-09-05T04:52:01.047Z,15.92
2022-09-05T04:54:50.083Z,15.84
2022-09-05T04:57:39.886Z,15.59
2022-09-05T05:06:00.031Z,15.39
2022-09-05T05:06:12.752Z,15.12
2022-09-05T05:06:13.107Z,15.25
2022-09-05T05:08:46.672Z,15.02
2022-09-05T05:15:10.118Z,15.27
2022-09-05T05:17:57.927Z,15.45
2022-09-05T05:18:07.943Z,15.90
2022-09-05T05:20:41.748Z,16.07
2022-09-05T05:23:09.688Z,16.08
2022-09-05T05:25:55.244Z,16.33
2022-09-05T05:28:47.763Z,16.20
2022-09-05T05:31:33.721Z,15.94
2022-09-05T05:34:12.988Z,15.72
2022-09-05T05:37:00.948Z,15.61
2022-09-05T05:39:30.121Z,16.03
2022-09-05T05:41:58.523Z,16.26
2022-09-05T05:44:31.633Z,16.31
2022-09-05T05:47:26.805Z,16.59
2022-09-05T05:50:01.790Z,16.51
2022-09-05T05:52:46.396Z,16.16
2022-09-05T05:55:52.392Z,16.38
2022-09-05T05:58:34.893Z,16.42
2022-09-05T06:01:21.930Z,16.45
2022-09-05T06:04:44.810Z,16.58
2022-09-05T06:08:07.509Z,16.55
2022-09-05T06:15:01.180Z,16.51
2022-09-05T06:15:06.394Z,16.26
2022-09-05T06:17:09.928Z,16.87
2022-09-05T06:22:04.922Z,17.06
2022-09-05T06:23:10.608Z,17.21
2022-09-05T06:26:33.415Z,17.45
2022-09-05T06:29:03.220Z,17.73
2022-09-05T06:31:54.541Z,18.08
2022-09-05T06:34:35.297Z,18.17
2022-09-05T06:37:25.312Z,18.67
2022-09-05T06:40:21.170Z,19.01
2022-09-05T06:43:21.992Z,19.30
2022-09-05T06:47:22.494Z,19.50
2022-09-05T06:49:49.224Z,20.03
2022-09-05T06:52:28.966Z,20.36
2022-09-05T06:55:21.398Z,20.74
2022-09-05T06:58:19.106Z,21.13
2022-09-05T07:00:51.617Z,21.19
2022-09-05T07:03:47.390Z,21.74
2022-09-05T07:07:02.227Z,21.98
2022-09-05T07:09:54.126Z,22.21
2022-09-05T07:12:30.417Z,22.60
2022-09-05T07:15:20.768Z,22.90
2022-09-05T07:18:09.936Z,22.88
2022-09-05T07:21:15.823Z,23.57
2022-09-05T07:24:10.229Z,23.37
2022-09-05T07:26:53.907Z,22.73
2022-09-05T07:29:32.557Z,22.67
2022-09-05T07:32:02.037Z,23.36
2022-09-05T07:34:31.580Z,23.50
2022-09-05T07:37:14.732Z,23.84
2022-09-05T07:39:55.638Z,23.15
2022-09-05T07:42:29.793Z,22.84
2022-09-05T07:45:06.444Z,23.70
2022-09-05T07:47:38.725Z,23.93
2022-09-05T07:52:15.616Z,24.31
2022-09-05T07:56:51.982Z,24.11
2022-09-05T07:56:54.387Z,23.71
2022-09-05T07:58:54.166Z,24.27
2022-09-05T08:01:22.836Z,25.05
2022-09-05T08:03:56.023Z,25.14
2022-09-05T08:07:11.913Z,24.86
2022-09-05T08:10:05.181Z,24.41
2022-09-05T08:12:16.036Z,25.31
2022-09-05T08:15:04.863Z,25.16
2022-09-05T08:17:33.812Z,25.63
2022-09-05T08:20:19.002Z,26.22
2022-09-05T08:23:19.155Z,27.09
2022-09-05T08:25:57.557Z,26.89
2022-09-05T08:28:35.382Z,27.03
2022-09-05T08:31:14.379Z,27.31
2022-09-05T08:33:43.341Z,27.88
2022-09-05T08:36:47.935Z,27.13
2022-09-05T08:39:25.588Z,26.98
2022-09-05T08:42:14.081Z,26.73
2022-09-05T08:46:43.591Z,26.36
2022-09-05T08:48:31.894Z,25.86
2022-09-05T08:51:17.228Z,25.61
2022-09-05T08:53:47.207Z,25.62
2022-09-05T08:56:49.180Z,25.49
2022-09-05T08:59:33.376Z,25.31
2022-09-05T09:02:47.333Z,24.92
2022-09-05T09:06:15.772Z,24.58
2022-09-05T09:08:55.397Z,24.28
2022-09-05T09:11:37.113Z,24.09
2022-09-05T09:14:43.637Z,24.19
2022-09-05T09:17:45.564Z,24.32
2022-09-05T09:20:47.076Z,24.38
2022-09-05T09:23:32.214Z,24.25
2022-09-05T09:26:11.123Z,24.31
2022-09-05T09:28:50.572Z,24.10
2022-09-05T09:31:30.098Z,24.02
2022-09-05T09:34:02.970Z,24.05
2022-09-05T09:36:48.075Z,24.15
2022-09-05T09:39:38.231Z,23.80
2022-09-05T09:42:34.251Z,24.23
2022-09-05T09:45:33.316Z,24.51
2022-09-05T09:48:37.556Z,24.67
2022-09-05T09:51:22.835Z,24.65
2022-09-05T09:53:52.369Z,24.76
2022-09-05T09:56:40.210Z,24.94
2022-09-05T09:59:54.803Z,26.07
2022-09-05T10:04:55.565Z,27.15
2022-09-05T10:10:46.660Z,27.29
2022-09-05T10:10:54.213Z,27.92
2022-09-05T10:12:14.423Z,27.14
2022-09-05T10:14:55.529Z,26.69
2022-09-05T10:17:24.860Z,26.99
2022-09-05T10:20:15.038Z,26.75
2022-09-05T10:23:07.456Z,26.22
2022-09-05T10:26:05.016Z,26.48
2022-09-05T10:28:43.808Z,28.08
2022-09-05T10:33:05.313Z,29.38
2022-09-05T10:35:19.763Z,29.12
2022-09-05T10:37:12.367Z,28.99
2022-09-05T10:39:45.443Z,29.60
2022-09-05T10:42:31.736Z,30.13
2022-09-05T10:45:05.022Z,29.12
2022-09-05T10:47:44.249Z,28.69
2022-09-05T10:50:26.407Z,29.07
2022-09-05T10:53:22.337Z,29.21
2022-09-05T10:56:01.753Z,29.49
2022-09-05T11:02:23.254Z,30.02
2022-09-05T11:02:28.058Z,30.39
2022-09-05T11:04:55.099Z,30.45
2022-09-05T11:07:41.654Z,30.77
2022-09-05T11:10:44.669Z,31.08
2022-09-05T11:13:15.421Z,31.80
2022-09-05T11:16:20.406Z,32.02
2022-09-05T11:19:12.971Z,32.60
2022-09-05T11:22:06.509Z,33.18
2022-09-05T11:24:59.754Z,33.51
2022-09-05T11:27:44.557Z,33.67
2022-09-05T11:30:30.310Z,33.42
2022-09-05T11:39:47.375Z,33.14
2022-09-05T11:39:56.619Z,33.11
2022-09-05T11:40:06.815Z,32.75
2022-09-05T11:42:34.053Z,32.38
2022-09-05T11:45:30.882Z,31.77
2022-09-05T11:48:53.131Z,31.99
2022-09-05T11:51:54.529Z,32.56
2022-09-05T11:54:30.339Z,32.85
2022-09-05T11:57:33.330Z,32.96
2022-09-05T12:00:32.757Z,32.71
2022-09-05T12:03:38.524Z,33.39
2022-09-05T12:06:13.654Z,34.00
2022-09-05T12:09:03.661Z,33.02
2022-09-05T12:12:01.356Z,33.24
2022-09-05T12:14:30.785Z,33.40
2022-09-05T12:17:10.070Z,34.10
2022-09-05T12:19:59.344Z,33.93
2022-09-05T12:22:37.364Z,33.98
2022-09-05T12:27:40.163Z,34.45
2022-09-05T12:29:26.533Z,34.07
2022-09-05T12:32:36.532Z,34.23
2022-09-05T12:36:13.213Z,33.91
2022-09-05T12:40:54.997Z,33.92
2022-09-05T12:41:44.465Z,34.50
2022-09-05T12:44:38.598Z,34.63
2022-09-05T12:47:00.162Z,34.27
2022-09-05T12:50:02.893Z,33.31
2022-09-05T12:52:33.660Z,33.03
2022-09-05T12:55:28.772Z,32.06
2022-09-05T13:02:59.030Z,30.73
2022-09-05T13:03:05.715Z,31.88
2022-09-05T13:04:13.324Z,32.58
2022-09-05T13:06:41.555Z,33.29
2022-09-05T13:09:16.555Z,32.34
2022-09-05T13:14:50.670Z,31.11
2022-09-05T13:15:22.902Z,30.81
2022-09-05T13:18:11.832Z,30.12
2022-09-05T13:20:49.098Z,30.52
2022-09-05T13:23:26.861Z,30.97
2022-09-05T13:25:58.474Z,32.13
2022-09-05T13:28:52.018Z,32.95
2022-09-05T13:37:57.930Z,33.64
2022-09-05T13:38:15.620Z,33.50
2022-09-05T13:38:29.398Z,33.67
2022-09-05T13:40:50.120Z,33.65
2022-09-05T13:43:26.562Z,33.69
2022-09-05T13:46:15.459Z,33.52
2022-09-05T13:51:44.410Z,34.15
2022-09-05T13:54:33.969Z,33.57
2022-09-05T13:57:31.883Z,33.33
2022-09-05T14:00:43.196Z,33.23
2022-09-05T14:03:40.482Z,33.68
2022-09-05T14:06:45.127Z,33.98
2022-09-05T14:09:41.226Z,34.24
2022-09-05T14:12:47.563Z,34.06
2022-09-05T14:15:30.278Z,34.05
2022-09-05T14:18:19.964Z,34.04
2022-09-05T14:21:15.750Z,33.85
2022-09-05T14:24:12.783Z,33.54
2022-09-05T14:26:49.138Z,33.19
2022-09-05T14:29:21.797Z,33.01
2022-09-05T14:37:36.917Z,32.63
2022-09-05T14:37:45.593Z,31.96
2022-09-05T14:38:32.690Z,32.25
2022-09-05T14:41:11.785Z,32.51
2022-09-05T14:43:41.664Z,32.75
2022-09-05T14:46:30.467Z,32.08
2022-09-05T14:49:07.431Z,32.13
2022-09-05T14:51:39.229Z,32.29
2022-09-05T15:01:24.967Z,32.48
2022-09-05T15:02:43.608Z,32.29
2022-09-05T15:03:08.621Z,32.35
2022-09-05T15:05:41.066Z,32.34
2022-09-05T15:08:30.567Z,32.43
2022-09-05T15:12:17.315Z,31.76
2022-09-05T15:14:18.578Z,31.26
2022-09-05T15:16:58.262Z,31.23
2022-09-05T15:20:06.637Z,31.42
2022-09-05T15:22:41.775Z,31.35
2022-09-05T15:25:21.639Z,31.07
2022-09-05T15:27:49.955Z,31.05
2022-09-05T15:30:36.082Z,31.31
2022-09-05T15:33:17.113Z,31.46
2022-09-05T15:35:45.535Z,31.20
2022-09-05T15:38:24.578Z,31.02
2022-09-05T15:41:23.574Z,30.84
2022-09-05T15:43:58.170Z,30.92
2022-09-05T15:46:35.626Z,31.02
2022-09-05T15:49:04.052Z,31.01
2022-09-05T15:51:46.839Z,30.83
2022-09-05T15:54:33.868Z,30.58
2022-09-05T15:57:17.886Z,30.35
2022-09-05T15:59:48.905Z,30.18
2022-09-05T16:02:20.767Z,30.41
2022-09-05T16:10:27.679Z,30.42
2022-09-05T16:10:38.968Z,30.25
2022-09-05T16:12:07.754Z,30.28
2022-09-05T16:14:36.524Z,29.67
2022-09-05T16:23:17.262Z,29.94
2022-09-05T16:23:30.680Z,29.91
2022-09-05T16:23:48.643Z,29.87
2022-09-05T16:26:19.107Z,29.84
2022-09-05T16:29:05.667Z,31.45
2022-09-05T16:31:43.062Z,31.21
2022-09-05T16:34:22.980Z,33.36
2022-09-05T16:37:08.494Z,34.97
2022-09-05T16:39:41.724Z,35.87
2022-09-05T16:42:24.002Z,36.05
2022-09-05T16:45:11.508Z,36.65
2022-09-05T16:47:47.444Z,36.86
2022-09-05T16:50:34.159Z,36.74
2022-09-05T16:53:01.468Z,36.73
2022-09-05T16:55:41.060Z,36.45
2022-09-05T16:58:21.964Z,35.75
2022-09-05T17:01:17.930Z,35.83
2022-09-05T17:04:07.997Z,35.64
2022-09-05T17:06:57.559Z,35.48
2022-09-05T17:09:27.688Z,35.37
2022-09-05T17:12:00.627Z,35.27
2022-09-05T17:14:40.967Z,35.00
2022-09-05T17:18:19.908Z,34.93
2022-09-05T17:20:38.276Z,33.59
2022-09-05T17:29:25.188Z,32.06
2022-09-05T17:29:31.059Z,30.65
2022-09-05T17:29:34.295Z,30.56
2022-09-05T17:31:57.756Z,31.22
2022-09-05T17:34:58.699Z,31.49
2022-09-05T17:37:53.496Z,31.10
2022-09-05T17:40:44.710Z,29.78
2022-09-05T17:43:28.580Z,28.92
2022-09-05T17:46:14.296Z,28.20
2022-09-05T17:49:17.526Z,27.75
2022-09-05T17:51:41.910Z,27.31
2022-09-05T17:54:27.929Z,26.41
2022-09-05T17:56:54.697Z,26.41
2022-09-05T17:59:22.092Z,26.33
2022-09-05T18:02:03.828Z,26.10
2022-09-05T18:04:39.775Z,25.86
2022-09-05T18:07:30.995Z,25.58
2022-09-05T18:10:14.936Z,25.32
2022-09-05T18:13:31.539Z,24.98
2022-09-05T18:15:36.102Z,24.92
2022-09-05T18:18:10.786Z,24.60
2022-09-05T18:21:21.593Z,24.29
2022-09-05T18:23:58.077Z,24.34
2022-09-05T18:26:37.236Z,24.19
2022-09-05T18:29:16.117Z,24.14
2022-09-05T18:31:43.492Z,23.98
2022-09-05T18:34:18.826Z,23.84
2022-09-05T18:36:53.547Z,23.63
2022-09-05T18:39:25.575Z,23.60
2022-09-05T18:42:33.722Z,23.51
2022-09-05T18:45:15.253Z,23.32
2022-09-05T18:47:57.088Z,23.11
2022-09-05T18:50:32.536Z,22.93
2022-09-05T18:53:10.585Z,23.01
2022-09-05T18:56:31.241Z,22.84
2022-09-05T18:59:16.405Z,22.60
2022-09-05T19:01:52.049Z,22.40
2022-09-05T19:04:41.577Z,22.43
2022-09-05T19:07:13.985Z,22.19
2022-09-05T19:10:35.000Z,22.00
2022-09-05T19:13:08.302Z,22.31
2022-09-05T19:16:42.485Z,22.11
2022-09-05T19:19:19.322Z,22.07
2022-09-05T19:22:37.370Z,22.02
2022-09-05T19:24:46.302Z,22.14
2022-09-05T19:28:33.661Z,22.07
2022-09-05T19:36:59.163Z,21.72
2022-09-05T19:37:05.925Z,21.80
2022-09-05T19:37:08.196Z,21.87
2022-09-05T19:41:12.024Z,21.82
2022-09-05T19:47:30.549Z,21.64
2022-09-05T19:47:42.806Z,21.61
2022-09-05T19:47:55.832Z,21.52
2022-09-05T19:50:13.700Z,21.51
2022-09-05T19:52:40.932Z,21.08
2022-09-05T19:55:20.557Z,21.33
2022-09-05T19:58:18.421Z,21.24
2022-09-05T20:00:39.190Z,21.04
2022-09-05T20:03:06.240Z,20.93
2022-09-05T20:05:33.733Z,21.13
2022-09-05T20:08:02.030Z,21.08
2022-09-05T20:10:32.513Z,21.03
2022-09-05T20:12:59.797Z,20.82
2022-09-05T20:15:36.378Z,20.90
2022-09-05T20:18:33.885Z,20.79
2022-09-05T20:21:16.271Z,20.76
2022-09-05T20:23:49.361Z,20.76
2022-09-05T20:26:21.078Z,20.69
2022-09-05T20:28:54.695Z,20.37
2022-09-05T20:31:27.432Z,20.29
2022-09-05T20:34:00.727Z,20.44
2022-09-05T20:43:17.392Z,20.33
2022-09-05T20:43:24.590Z,20.47
2022-09-05T20:43:31.859Z,20.39
2022-09-05T20:45:44.693Z,20.28
2022-09-05T20:54:08.975Z,20.28
2022-09-05T20:54:13.191Z,20.23
2022-09-05T20:54:27.282Z,20.13
2022-09-05T20:56:36.021Z,20.33
2022-09-05T20:59:02.902Z,20.29
2022-09-05T21:01:32.512Z,20.13
2022-09-05T21:04:02.008Z,20.08
2022-09-05T21:06:33.205Z,19.95
2022-09-05T21:09:57.801Z,19.96
2022-09-05T21:12:28.719Z,20.07
2022-09-05T21:15:26.999Z,19.80
2022-09-05T21:18:18.390Z,19.61
2022-09-05T21:20:56.749Z,19.34
2022-09-05T21:23:38.445Z,19.51
2022-09-05T21:26:21.312Z,19.49
2022-09-05T21:29:11.322Z,19.49
2022-09-05T21:31:42.524Z,19.46
2022-09-05T21:34:20.299Z,19.37
2022-09-05T21:36:49.907Z,19.28
2022-09-05T21:39:34.842Z,19.18
2022-09-05T21:42:15.619Z,19.42
2022-09-05T21:47:40.635Z,19.24
2022-09-05T21:47:52.503Z,18.96
2022-09-05T21:50:30.799Z,18.57
2022-09-05T21:54:19.063Z,18.73
2022-09-05T21:59:22.793Z,18.65
2022-09-05T21:59:27.563Z,18.93
2022-09-05T22:01:44.902Z,19.04
2022-09-05T22:04:17.505Z,18.80
2022-09-05T22:06:48.813Z,19.02
2022-09-05T22:09:25.891Z,19.05
2022-09-05T22:11:52.804Z,18.83
2022-09-05T22:14:21.393Z,18.98
2022-09-05T22:16:50.723Z,18.91
2022-09-05T22:19:22.823Z,18.79
2022-09-05T22:22:15.691Z,18.67
2022-09-05T22:24:52.114Z,18.62
2022-09-05T22:27:20.947Z,18.56
2022-09-05T22:29:50.560Z,18.43
2022-09-05T22:32:18.957Z,18.02
2022-09-05T22:35:27.653Z,18.06
2022-09-05T22:37:49.443Z,17.93
2022-09-05T22:40:26.451Z,18.28
2022-09-05T22:43:01.145Z,18.50
2022-09-05T22:45:29.324Z,18.41
2022-09-05T22:47:56.491Z,18.39
2022-09-05T22:50:56.006Z,18.47
2022-09-05T22:53:22.719Z,18.43
2022-09-05T22:55:58.120Z,18.52
2022-09-05T22:58:25.608Z,18.52
2022-09-05T23:00:53.052Z,18.53
2022-09-05T23:03:20.080Z,18.32
2022-09-05T23:05:46.982Z,18.20
2022-09-05T23:08:14.353Z,18.43
2022-09-05T23:10:41.220Z,18.27
2022-09-05T23:13:09.818Z,18.07
2022-09-05T23:15:37.505Z,17.97
2022-09-05T23:18:05.103Z,18.06
2022-09-05T23:20:32.609Z,18.11
2022-09-05T23:23:03.482Z,18.15
2022-09-05T23:25:30.553Z,18.14
2022-09-05T23:27:57.223Z,18.27
2022-09-05T23:30:23.961Z,18.43
2022-09-05T23:32:52.040Z,17.97
2022-09-05T23:35:19.373Z,17.97
2022-09-05T23:37:47.045Z,17.79
2022-09-05T23:40:16.657Z,17.51
2022-09-05T23:43:04.231Z,17.82
2022-09-05T23:45:31.167Z,17.72
2022-09-05T23:47:58.538Z,17.86
2022-09-05T23:50:28.291Z,17.97
2022-09-05T23:52:55.019Z,17.84
2022-09-05T23:55:23.271Z,18.00
2022-09-05T23:57:49.889Z,17.89
